North Ogden, Utah
Current Conditions -  °F | °C
As of 8:53 PM on Thursday 27 Nov 2014 (Local Time) from KOGD Reporting Station
Clear Clear  
Wind Chill: 44°   Ceiling: Unl
Heat Index: 48°   Visibility: 10mi
Dew Point: 27°   Wind: 9mph
Humidity: 44%   Direction: 170°S
Pressure: 30.12"   Gusts: NA
Location:  41.3178°N, 111.954°W
Report Text: KOGD 280353Z AUTO 17008KT 10SM CLR 09/M03 A3012 RMK AO2 SLP187 T00891028 TSNO
Loading
Personal Weather Stations






























Interactive Weather Map New forecast layout! Learn more

10-Day Weather Forecast

Advertisements
Track Severe Weather on mobile